FYWH/WDH METAR and TAF weather

Enter ICAO airport designator
Station Type Date Time Source
FYWH METAR 2022/05/26 04:00 UTC NOAA

FYWH 260400Z 29006KT CAVOK 06/M02 Q1029 NOSIG


Station Type Date Time Source
FYWH Decoded METAR 2022/05/26 04:00 UTC NOAA

J. G. Strijdom, Namibia (FYWH) 22-29S 017-28E 1700M
May 26, 2022 - 12:00 AM EDT / 2022.05.26 0400 UTC
Wind: from the WNW (290 degrees) at 7 MPH (6 KT):0
Visibility: greater than 7 mile(s):0
Temperature: 42 F (6 C)
Dew Point: 28 F (-2 C)
Relative Humidity: 56%
Pressure (altimeter): 30.39 in. Hg (1029 hPa)
ob: FYWH 260400Z 29006KT CAVOK 06/M02 Q1029 NOSIG
cycle: 4

Station Type Date Time Source
FYWH TAF 2022/05/26 06:59 UTC NOAA

TAF FYWH 260400Z 2606/2706 28006KT CAVOK
BECMG 2610/2612 36008KT

Example: see airport list